Time;durP1;ratioP1;P1;durP2;ratioP2;P2;SDS_P1;SDS_P2;PMS_P1;PMS_P2;Temp;Humidity;BMP_temperature;BMP_pressure;BME280_temperature;BME280_humidity;BME280_pressure;Samples;Min_cycle;Max_cycle;Signal;HPM_P1;HPM_P2
2023/02/26 00:01:24;;;;;;;6.05;2.47;;;3.30;99.90;;;;;;5020784;28;20052;-85
2023/02/26 00:03:52;;;;;;;3.53;2.05;;;3.30;99.90;;;;;;5020385;28;20125;-85
2023/02/26 00:06:20;;;;;;;3.45;1.95;;;3.30;99.90;;;;;;5004211;28;20105;-85
2023/02/26 00:08:47;;;;;;;6.05;2.40;;;3.30;99.90;;;;;;5038374;28;20050;-85
2023/02/26 00:11:14;;;;;;;6.07;2.30;;;3.30;99.90;;;;;;5014188;28;20111;-85
2023/02/26 00:13:43;;;;;;;6.10;2.42;;;3.30;99.90;;;;;;5026613;28;20041;-85
2023/02/26 00:16:30;;;;;;;5.95;2.10;;;3.40;99.90;;;;;;5020662;28;20511;-86
2023/02/26 00:18:59;;;;;;;4.78;2.00;;;3.40;99.90;;;;;;5027103;28;20046;-86
2023/02/26 00:21:28;;;;;;;3.47;1.83;;;3.30;99.90;;;;;;5026380;28;20077;-85
2023/02/26 00:23:55;;;;;;;4.57;1.73;;;3.30;99.90;;;;;;5033398;28;20042;-87
2023/02/26 00:26:24;;;;;;;3.55;1.55;;;3.30;99.90;;;;;;5034588;28;20054;-85
2023/02/26 00:28:51;;;;;;;3.67;1.80;;;3.20;99.90;;;;;;5039599;28;20068;-85
2023/02/26 00:31:19;;;;;;;4.97;1.98;;;3.20;99.90;;;;;;5039833;28;20049;-86
2023/02/26 00:33:47;;;;;;;5.15;1.70;;;3.10;99.90;;;;;;5026136;28;20046;-85
2023/02/26 00:37:01;;;;;;;6.30;1.58;;;3.00;99.90;;;;;;5029033;28;20477;-84
2023/02/26 00:39:36;;;;;;;2.63;1.58;;;3.00;99.90;;;;;;4989076;28;20052;-83
2023/02/26 00:42:03;;;;;;;2.83;1.52;;;2.90;99.90;;;;;;5027060;28;20038;-85
2023/02/26 00:44:31;;;;;;;3.00;1.40;;;2.90;99.90;;;;;;5021415;28;20042;-85
2023/02/26 00:47:09;;;;;;;1.88;1.52;;;2.90;99.90;;;;;;5026204;28;20056;-85
2023/02/26 00:49:42;;;;;;;3.28;1.65;;;2.90;99.90;;;;;;5005346;28;20497;-84
2023/02/26 00:52:30;;;;;;;5.80;1.90;;;2.80;99.90;;;;;;5016931;28;20046;-85
2023/02/26 00:54:57;;;;;;;3.50;1.90;;;2.90;99.90;;;;;;5033844;28;20076;-86
2023/02/26 00:57:24;;;;;;;3.17;1.67;;;2.80;99.90;;;;;;5034013;28;20098;-86
2023/02/26 00:59:50;;;;;;;6.35;1.60;;;2.90;99.90;;;;;;5033713;28;20037;-86
2023/02/26 01:02:17;;;;;;;4.38;1.65;;;2.90;99.90;;;;;;5034319;28;20050;-85
2023/02/26 01:04:45;;;;;;;2.92;1.33;;;2.90;99.90;;;;;;5032625;28;20076;-85
2023/02/26 01:07:13;;;;;;;2.85;1.33;;;2.80;99.90;;;;;;5026861;28;20050;-87
2023/02/26 01:09:40;;;;;;;4.88;1.85;;;2.80;99.90;;;;;;5030793;28;20054;-85
2023/02/26 01:12:10;;;;;;;2.83;1.80;;;2.80;99.90;;;;;;5030895;28;20045;-85
2023/02/26 01:14:37;;;;;;;5.15;2.13;;;2.80;99.90;;;;;;5033143;28;20042;-86
2023/02/26 01:17:25;;;;;;;2.95;1.73;;;2.70;99.90;;;;;;5033033;28;20144;-85
2023/02/26 01:20:05;;;;;;;2.85;1.80;;;2.70;99.90;;;;;;5025973;28;20052;-85
2023/02/26 01:22:53;;;;;;;2.22;1.52;;;2.60;99.90;;;;;;5028513;28;20088;-85
2023/02/26 01:25:33;;;;;;;2.85;1.55;;;2.40;99.90;;;;;;5027441;28;20073;-85
2023/02/26 01:28:00;;;;;;;2.33;1.63;;;2.40;99.90;;;;;;5041180;28;20129;-85
2023/02/26 01:30:27;;;;;;;3.20;1.98;;;2.40;99.90;;;;;;5028288;28;20053;-86
2023/02/26 01:33:18;;;;;;;3.47;1.50;;;2.30;99.90;;;;;;5028145;28;20042;-85
2023/02/26 01:35:57;;;;;;;3.10;1.52;;;2.20;99.90;;;;;;5044274;28;20556;-85
2023/02/26 01:38:30;;;;;;;4.40;2.28;;;2.20;99.90;;;;;;5031196;28;20060;-86
2023/02/26 01:41:09;;;;;;;4.15;1.88;;;2.20;99.90;;;;;;5031162;28;20045;-85
2023/02/26 01:44:01;;;;;;;4.78;1.90;;;2.10;99.90;;;;;;5029598;28;20046;-86
2023/02/26 01:46:30;;;;;;;2.58;1.60;;;2.00;99.90;;;;;;5028435;28;20088;-85
2023/02/26 01:49:00;;;;;;;4.30;1.60;;;2.10;99.90;;;;;;5028634;28;20049;-85
2023/02/26 01:51:53;;;;;;;4.93;1.63;;;2.00;99.90;;;;;;5039904;28;20141;-85
2023/02/26 01:54:28;;;;;;;3.22;1.60;;;1.90;99.90;;;;;;5032468;28;20075;-85
2023/02/26 01:57:03;;;;;;;5.85;1.92;;;2.00;99.90;;;;;;5034518;28;20294;-85
2023/02/26 01:59:33;;;;;;;3.72;1.73;;;2.00;99.90;;;;;;5029926;28;20046;-85
2023/02/26 02:02:03;;;;;;;3.42;1.40;;;1.90;99.90;;;;;;5023002;28;20052;-86
2023/02/26 02:04:32;;;;;;;5.00;2.00;;;1.90;99.90;;;;;;5028861;28;20046;-85
2023/02/26 02:06:59;;;;;;;3.47;2.20;;;1.80;99.90;;;;;;5030782;28;20081;-85
2023/02/26 02:09:26;;;;;;;2.20;1.65;;;1.80;99.90;;;;;;5043254;28;20137;-86
2023/02/26 02:12:25;;;;;;;5.03;1.70;;;1.70;99.90;;;;;;5033421;28;20052;-85
2023/02/26 02:15:15;;;;;;;3.78;1.40;;;1.70;99.90;;;;;;5019981;28;20065;-85
2023/02/26 02:17:57;;;;;;;2.92;1.60;;;1.60;99.90;;;;;;5042408;28;20084;-86
2023/02/26 02:21:09;;;;;;;2.53;1.50;;;1.60;99.90;;;;;;5030020;28;20105;-86
2023/02/26 02:23:46;;;;;;;3.28;1.88;;;1.60;99.90;;;;;;5026031;28;20054;-85
2023/02/26 02:26:49;;;;;;;6.43;2.13;;;1.60;99.90;;;;;;5041916;28;20045;-85
2023/02/26 02:29:30;;;;;;;4.80;1.85;;;1.60;99.90;;;;;;5035082;28;20472;-85
2023/02/26 02:32:14;;;;;;;4.82;2.25;;;1.60;99.90;;;;;;5042799;28;20052;-85
2023/02/26 02:34:51;;;;;;;4.18;1.85;;;1.50;99.90;;;;;;5027014;28;20052;-85
2023/02/26 02:37:33;;;;;;;6.00;1.85;;;1.50;99.90;;;;;;5030502;28;20497;-85
2023/02/26 02:40:09;;;;;;;3.20;1.70;;;1.60;99.90;;;;;;5030808;28;20050;-86
2023/02/26 02:42:50;;;;;;;3.67;1.67;;;1.50;99.90;;;;;;5027699;28;20536;-85
2023/02/26 02:45:30;;;;;;;3.50;1.80;;;1.60;99.90;;;;;;5040975;28;20081;-85
2023/02/26 02:48:04;;;;;;;4.30;1.58;;;1.50;99.90;;;;;;5030737;28;20073;-83
2023/02/26 02:50:41;;;;;;;6.43;3.60;;;1.50;99.90;;;;;;5033463;28;20049;-85
2023/02/26 02:53:48;;;;;;;2.05;1.70;;;1.40;99.90;;;;;;5041839;28;20048;-85
2023/02/26 02:56:24;;;;;;;4.30;2.10;;;1.40;99.90;;;;;;5007941;28;20077;-85
2023/02/26 02:59:01;;;;;;;3.42;1.70;;;1.40;99.90;;;;;;5028525;28;20478;-85
2023/02/26 03:01:30;;;;;;;7.68;2.70;;;1.40;99.90;;;;;;5026720;28;20128;-85
2023/02/26 03:04:10;;;;;;;5.47;1.73;;;1.40;99.90;;;;;;5027066;28;20038;-85
2023/02/26 03:06:37;;;;;;;3.67;1.67;;;1.40;99.90;;;;;;5018034;28;20138;-86
2023/02/26 03:09:07;;;;;;;2.83;1.58;;;1.40;99.90;;;;;;5029183;28;20527;-85
2023/02/26 03:11:34;;;;;;;3.90;1.52;;;1.40;99.90;;;;;;5026795;28;20061;-85
2023/02/26 03:14:02;;;;;;;3.63;1.70;;;1.30;99.90;;;;;;5028362;28;20120;-85
2023/02/26 03:16:52;;;;;;;4.88;1.60;;;1.30;99.90;;;;;;5026886;28;20470;-84
2023/02/26 03:19:48;;;;;;;3.80;1.60;;;1.30;99.90;;;;;;5028359;28;20085;-85
2023/02/26 03:22:42;;;;;;;2.85;1.60;;;1.30;99.90;;;;;;5027366;28;20045;-85
2023/02/26 03:25:16;;;;;;;1.85;1.60;;;1.30;99.90;;;;;;5023956;28;20070;-85
2023/02/26 03:27:57;;;;;;;3.15;1.73;;;1.20;99.90;;;;;;5041292;28;20445;-85
2023/02/26 03:31:02;;;;;;;2.78;1.48;;;1.10;99.90;;;;;;5028047;28;20501;-84
2023/02/26 03:33:43;;;;;;;2.63;1.52;;;1.10;99.90;;;;;;5024922;28;20057;-84
2023/02/26 03:36:25;;;;;;;3.30;1.60;;;1.10;99.90;;;;;;5025258;28;20045;-85
2023/02/26 03:38:59;;;;;;;5.63;1.80;;;1.10;99.90;;;;;;5021426;28;20461;-84
2023/02/26 03:41:31;;;;;;;6.25;1.90;;;1.20;99.90;;;;;;5026619;28;20602;-85
2023/02/26 03:44:03;;;;;;;2.92;1.70;;;1.20;99.90;;;;;;5026188;28;20048;-85
2023/02/26 03:46:36;;;;;;;6.57;1.85;;;1.20;99.90;;;;;;5026148;28;20684;-85
2023/02/26 03:49:07;;;;;;;1.92;1.23;;;1.30;99.90;;;;;;5042113;28;20053;-86
2023/02/26 03:51:36;;;;;;;6.20;1.83;;;1.20;99.90;;;;;;5020465;28;20050;-85
2023/02/26 03:54:27;;;;;;;2.25;1.60;;;1.10;99.90;;;;;;5015729;28;20050;-85
2023/02/26 03:56:54;;;;;;;1.48;1.23;;;1.10;99.90;;;;;;5016369;28;20049;-85
2023/02/26 03:59:21;;;;;;;3.75;1.80;;;1.10;99.90;;;;;;5026279;28;20077;-85
2023/02/26 04:01:58;;;;;;;2.45;1.80;;;1.00;99.90;;;;;;5028933;28;20069;-85
2023/02/26 04:04:48;;;;;;;2.28;1.77;;;0.90;99.90;;;;;;5024845;28;20048;-84
2023/02/26 04:07:16;;;;;;;2.47;1.63;;;0.90;99.90;;;;;;5023658;28;20164;-85
2023/02/26 04:09:45;;;;;;;2.90;1.88;;;0.90;99.90;;;;;;5027075;28;20529;-85
2023/02/26 04:12:12;;;;;;;3.78;1.95;;;0.70;99.90;;;;;;5027433;28;20077;-84
2023/02/26 04:14:39;;;;;;;4.65;1.70;;;0.70;99.90;;;;;;5046186;28;20403;-84
2023/02/26 04:17:07;;;;;;;4.72;1.88;;;0.70;99.90;;;;;;5028494;28;20068;-85
2023/02/26 04:19:34;;;;;;;8.23;2.22;;;0.70;99.90;;;;;;5031575;28;20042;-85
2023/02/26 04:22:01;;;;;;;4.72;1.70;;;0.70;99.90;;;;;;5035564;28;20049;-84
2023/02/26 04:24:28;;;;;;;2.17;1.40;;;0.70;99.90;;;;;;5021490;28;20045;-84
2023/02/26 04:26:54;;;;;;;2.13;1.73;;;0.70;99.90;;;;;;5022665;28;20145;-84
2023/02/26 04:29:21;;;;;;;3.88;1.83;;;0.80;99.90;;;;;;5027203;28;20064;-84
2023/02/26 04:31:48;;;;;;;4.80;1.88;;;0.80;99.90;;;;;;5035459;28;20071;-84
2023/02/26 04:34:15;;;;;;;4.82;1.88;;;0.90;99.90;;;;;;5027176;28;20456;-84
2023/02/26 04:36:42;;;;;;;3.80;1.90;;;0.90;99.90;;;;;;5021324;28;20129;-84
2023/02/26 04:39:09;;;;;;;4.13;1.75;;;0.80;99.90;;;;;;5029625;28;20045;-85
2023/02/26 04:41:37;;;;;;;5.75;2.00;;;0.80;99.90;;;;;;5026561;28;20505;-85
2023/02/26 04:44:04;;;;;;;6.60;2.10;;;0.80;99.90;;;;;;5029597;28;20041;-85
2023/02/26 04:46:32;;;;;;;3.33;1.70;;;0.90;99.90;;;;;;5029091;28;20076;-85
2023/02/26 04:48:59;;;;;;;5.53;1.90;;;0.90;99.90;;;;;;5025591;28;20577;-85
2023/02/26 04:51:25;;;;;;;3.42;1.88;;;0.90;99.90;;;;;;5028013;28;20049;-85
2023/02/26 04:53:52;;;;;;;2.65;1.90;;;0.90;99.90;;;;;;5027267;28;20133;-85
2023/02/26 04:56:19;;;;;;;4.82;2.00;;;1.00;99.90;;;;;;5027169;28;20042;-86
2023/02/26 04:58:46;;;;;;;4.35;1.92;;;0.90;99.90;;;;;;5028059;28;20077;-84
2023/02/26 05:01:13;;;;;;;4.13;2.10;;;1.00;99.90;;;;;;5047326;28;20041;-84
2023/02/26 05:03:39;;;;;;;2.83;1.67;;;1.00;99.90;;;;;;5022786;28;20082;-85
2023/02/26 05:06:06;;;;;;;3.47;1.80;;;1.00;99.90;;;;;;5020566;28;20058;-85
2023/02/26 05:08:33;;;;;;;3.78;1.95;;;1.00;99.90;;;;;;5026097;28;20060;-85
2023/02/26 05:11:00;;;;;;;1.67;1.55;;;1.00;99.90;;;;;;5028562;28;20053;-86
2023/02/26 05:13:26;;;;;;;4.55;2.03;;;1.00;99.90;;;;;;5032529;28;20536;-86
2023/02/26 05:15:53;;;;;;;3.67;1.55;;;1.00;99.90;;;;;;5031341;28;20050;-85
2023/02/26 05:18:20;;;;;;;2.95;1.95;;;1.00;99.90;;;;;;5038439;28;20045;-84
2023/02/26 05:20:52;;;;;;;3.45;2.00;;;1.10;99.90;;;;;;5027928;28;20041;-85
2023/02/26 05:23:19;;;;;;;3.20;2.40;;;1.00;99.90;;;;;;5029617;28;20050;-85
2023/02/26 05:25:46;;;;;;;5.45;2.58;;;1.10;99.90;;;;;;5027643;28;20144;-84
2023/02/26 05:28:13;;;;;;;4.07;2.05;;;1.10;99.90;;;;;;5026810;28;20060;-85
2023/02/26 05:30:40;;;;;;;4.30;2.38;;;1.10;99.90;;;;;;5022828;28;20137;-85
2023/02/26 05:33:07;;;;;;;4.05;2.38;;;1.10;99.90;;;;;;5030413;28;20045;-85
2023/02/26 05:35:34;;;;;;;6.78;2.53;;;1.10;99.90;;;;;;5021652;28;20076;-85
2023/02/26 05:38:01;;;;;;;4.80;2.47;;;1.00;99.90;;;;;;5032573;28;20048;-85
2023/02/26 05:40:27;;;;;;;2.97;2.13;;;1.00;99.90;;;;;;5027960;28;20532;-85
2023/02/26 05:42:54;;;;;;;4.70;2.13;;;1.10;99.90;;;;;;5027327;28;20077;-84
2023/02/26 05:45:21;;;;;;;4.82;1.98;;;1.00;99.90;;;;;;5030211;28;20056;-84
2023/02/26 05:47:47;;;;;;;6.30;2.30;;;1.00;99.90;;;;;;5031166;28;20464;-85
2023/02/26 05:50:14;;;;;;;3.17;2.33;;;1.00;99.90;;;;;;5031689;28;20092;-85
2023/02/26 05:52:41;;;;;;;7.00;3.30;;;1.00;99.90;;;;;;5022886;28;20046;-84
2023/02/26 05:55:08;;;;;;;15.65;6.40;;;1.00;99.90;;;;;;5033334;28;20068;-84
2023/02/26 05:57:35;;;;;;;9.32;4.60;;;1.00;99.90;;;;;;5031722;28;20124;-84
2023/02/26 06:00:03;;;;;;;2.63;1.90;;;0.90;99.90;;;;;;5031768;28;20052;-85
2023/02/26 06:02:30;;;;;;;3.90;2.17;;;0.70;99.90;;;;;;5023250;28;20520;-86
2023/02/26 06:04:56;;;;;;;4.03;2.15;;;0.60;99.90;;;;;;5031975;28;20073;-84
2023/02/26 06:07:23;;;;;;;5.55;2.67;;;0.60;99.90;;;;;;5032825;28;20050;-85
2023/02/26 06:09:50;;;;;;;3.65;2.80;;;0.60;99.90;;;;;;5030971;28;20058;-85
2023/02/26 06:12:17;;;;;;;5.28;3.58;;;0.60;99.90;;;;;;5035101;28;20465;-85
2023/02/26 06:14:43;;;;;;;7.25;3.10;;;0.50;99.90;;;;;;5029220;28;20066;-83
2023/02/26 06:17:10;;;;;;;5.90;2.58;;;0.50;99.90;;;;;;5027906;28;20129;-85
2023/02/26 06:19:37;;;;;;;4.93;2.20;;;0.50;99.90;;;;;;5015271;28;20070;-85
2023/02/26 06:22:04;;;;;;;6.75;2.22;;;0.40;99.90;;;;;;5039094;28;20120;-83
2023/02/26 06:24:30;;;;;;;3.10;1.90;;;0.40;99.90;;;;;;5021884;28;20045;-87
2023/02/26 06:26:57;;;;;;;4.18;2.00;;;0.30;99.90;;;;;;5013189;28;20163;-85
2023/02/26 06:29:24;;;;;;;4.95;2.42;;;0.30;99.90;;;;;;5041522;28;20113;-84
2023/02/26 06:31:50;;;;;;;4.82;2.13;;;0.30;99.90;;;;;;5015824;28;20101;-85
2023/02/26 06:34:17;;;;;;;3.83;2.03;;;0.30;99.90;;;;;;5027939;28;20088;-86
2023/02/26 06:36:44;;;;;;;4.15;2.13;;;0.30;99.90;;;;;;5025283;28;20129;-85
2023/02/26 06:39:14;;;;;;;4.53;2.63;;;0.30;99.90;;;;;;5032220;28;20045;-86
2023/02/26 06:41:40;;;;;;;3.80;2.30;;;0.30;99.90;;;;;;5020778;28;20056;-85
2023/02/26 06:44:09;;;;;;;3.05;1.98;;;0.30;99.90;;;;;;5024845;28;20533;-85
2023/02/26 06:46:36;;;;;;;5.13;2.33;;;0.30;99.90;;;;;;5038556;28;20049;-84
2023/02/26 06:49:03;;;;;;;4.90;2.22;;;0.30;99.90;;;;;;5018686;28;20081;-85
2023/02/26 06:51:31;;;;;;;5.38;2.10;;;0.30;99.90;;;;;;5023012;28;20089;-85
2023/02/26 06:53:57;;;;;;;3.40;1.90;;;0.20;99.90;;;;;;5021652;28;20102;-85
2023/02/26 06:56:24;;;;;;;3.92;1.70;;;0.20;99.90;;;;;;5017166;28;20042;-85
2023/02/26 06:58:51;;;;;;;4.63;2.15;;;0.20;99.90;;;;;;5026167;28;20424;-84
2023/02/26 07:01:18;;;;;;;4.78;2.22;;;0.00;99.90;;;;;;5021081;28;20053;-84
2023/02/26 07:03:45;;;;;;;6.22;2.13;;;0.00;99.90;;;;;;5024372;28;20073;-84
2023/02/26 07:06:12;;;;;;;4.43;2.28;;;0.00;99.90;;;;;;5030329;28;20052;-85
2023/02/26 07:08:53;;;;;;;6.15;2.05;;;-0.10;99.90;;;;;;5028713;28;20480;-85
2023/02/26 07:11:20;;;;;;;2.42;2.05;;;-0.10;99.90;;;;;;5014519;28;20429;-85
2023/02/26 07:13:47;;;;;;;7.88;2.63;;;-0.20;99.90;;;;;;5024211;28;20084;-84
2023/02/26 07:16:13;;;;;;;4.57;2.50;;;-0.30;99.90;;;;;;5025103;28;20050;-84
2023/02/26 07:18:40;;;;;;;3.92;2.35;;;-0.40;99.90;;;;;;5025885;28;20064;-83
2023/02/26 07:21:07;;;;;;;4.82;1.73;;;-0.40;99.90;;;;;;5028416;28;20123;-85
2023/02/26 07:23:34;;;;;;;2.55;1.65;;;-0.40;99.90;;;;;;5021983;28;20060;-84
2023/02/26 07:26:01;;;;;;;3.42;1.58;;;-0.40;99.90;;;;;;5022246;28;20049;-84
2023/02/26 07:28:27;;;;;;;5.30;2.17;;;-0.30;99.90;;;;;;5027903;28;20053;-84
2023/02/26 07:30:55;;;;;;;4.45;1.90;;;-0.30;99.90;;;;;;5022048;28;20455;-83
2023/02/26 07:33:23;;;;;;;4.25;1.95;;;-0.20;99.90;;;;;;5028560;28;20055;-84
2023/02/26 07:35:50;;;;;;;5.13;2.53;;;-0.30;99.90;;;;;;5018064;28;20045;-84
2023/02/26 07:38:17;;;;;;;7.65;2.00;;;-0.30;99.90;;;;;;5021781;28;20063;-83
2023/02/26 07:40:45;;;;;;;4.85;2.05;;;-0.30;99.90;;;;;;5015543;28;20128;-84
2023/02/26 07:43:12;;;;;;;5.97;2.22;;;-0.20;99.90;;;;;;5022413;28;20529;-84
2023/02/26 07:45:39;;;;;;;6.63;2.25;;;-0.20;99.90;;;;;;5021660;28;20084;-84
2023/02/26 07:48:06;;;;;;;7.28;2.15;;;-0.10;99.90;;;;;;5040719;28;20128;-84
2023/02/26 07:50:32;;;;;;;4.63;2.45;;;-0.10;99.90;;;;;;5035079;28;20045;-84
2023/02/26 07:52:59;;;;;;;5.35;1.80;;;-0.10;99.90;;;;;;5025605;28;20505;-84
2023/02/26 07:55:26;;;;;;;7.47;1.73;;;0.00;99.90;;;;;;5028327;28;20053;-84
2023/02/26 07:57:53;;;;;;;5.70;2.20;;;0.00;99.90;;;;;;5018852;28;20058;-84
2023/02/26 08:00:20;;;;;;;3.00;1.90;;;0.00;99.90;;;;;;5025634;28;20058;-84
2023/02/26 08:02:47;;;;;;;4.28;2.17;;;0.00;99.90;;;;;;5017452;28;20105;-84
2023/02/26 08:05:14;;;;;;;8.93;2.17;;;0.10;99.90;;;;;;5020960;28;20115;-84
2023/02/26 08:07:40;;;;;;;4.05;2.03;;;0.10;99.90;;;;;;5023220;28;20081;-84
2023/02/26 08:10:08;;;;;;;7.15;1.90;;;0.10;99.90;;;;;;5017632;28;20073;-85
2023/02/26 08:12:35;;;;;;;2.20;1.67;;;0.10;99.90;;;;;;5015895;28;20081;-82
2023/02/26 08:15:04;;;;;;;2.92;1.70;;;0.10;99.90;;;;;;5040801;28;20052;-85
2023/02/26 08:17:31;;;;;;;7.18;2.00;;;0.10;99.90;;;;;;5030550;28;20512;-85
2023/02/26 08:19:58;;;;;;;2.95;1.80;;;0.10;99.90;;;;;;5014629;28;20042;-84
2023/02/26 08:22:25;;;;;;;3.17;1.90;;;0.20;99.90;;;;;;5020385;28;20508;-84
2023/02/26 08:24:52;;;;;;;5.88;2.72;;;0.20;99.90;;;;;;5018521;28;20065;-84
2023/02/26 08:27:19;;;;;;;13.90;2.72;;;0.30;99.90;;;;;;5018016;28;20049;-85
2023/02/26 08:29:45;;;;;;;4.25;2.60;;;0.30;99.90;;;;;;5022744;28;20110;-84
2023/02/26 08:32:14;;;;;;;7.20;2.45;;;0.40;99.90;;;;;;5042750;28;20055;-84
2023/02/26 08:34:41;;;;;;;5.72;2.22;;;0.40;99.90;;;;;;5020895;28;20049;-85
2023/02/26 08:37:10;;;;;;;3.60;1.90;;;0.50;99.90;;;;;;5017952;28;20040;-85
2023/02/26 08:39:38;;;;;;;6.93;2.47;;;0.50;99.90;;;;;;5016003;28;20515;-84
2023/02/26 08:42:08;;;;;;;2.47;2.10;;;0.50;99.90;;;;;;5023755;28;20105;-86
2023/02/26 08:44:35;;;;;;;3.08;1.70;;;0.60;99.90;;;;;;5042642;28;20473;-85
2023/02/26 08:47:02;;;;;;;3.83;2.10;;;0.60;99.90;;;;;;5028952;28;20045;-84
2023/02/26 08:49:29;;;;;;;3.30;1.42;;;0.70;99.90;;;;;;5019685;28;20046;-85
2023/02/26 08:51:56;;;;;;;5.75;2.42;;;0.60;99.90;;;;;;5026782;28;20054;-85
2023/02/26 08:54:23;;;;;;;5.57;1.35;;;0.60;99.90;;;;;;5041924;28;20084;-85
2023/02/26 08:56:50;;;;;;;2.53;1.63;;;0.70;99.90;;;;;;5028766;28;20051;-84
2023/02/26 08:59:17;;;;;;;1.65;1.00;;;0.70;99.90;;;;;;5029982;28;20041;-85
2023/02/26 09:01:44;;;;;;;2.55;1.48;;;0.60;99.90;;;;;;5026194;28;20046;-85
2023/02/26 09:04:10;;;;;;;1.63;1.08;;;0.70;99.90;;;;;;5025723;28;20121;-84
2023/02/26 09:06:37;;;;;;;2.05;1.20;;;0.80;99.90;;;;;;5040624;28;20515;-85
2023/02/26 09:09:04;;;;;;;1.10;1.00;;;0.90;99.90;;;;;;5028301;28;20464;-85
2023/02/26 09:11:31;;;;;;;3.03;1.25;;;1.00;99.90;;;;;;5022146;28;20092;-85
2023/02/26 09:13:58;;;;;;;1.25;1.00;;;1.00;99.90;;;;;;5033461;28;20053;-85
2023/02/26 09:16:25;;;;;;;2.10;1.27;;;1.10;99.90;;;;;;5030237;28;20129;-85
2023/02/26 09:18:52;;;;;;;2.80;1.17;;;1.20;99.90;;;;;;5027839;28;20050;-84
2023/02/26 09:21:19;;;;;;;2.30;1.30;;;1.30;99.90;;;;;;5029268;28;20580;-85
2023/02/26 09:23:46;;;;;;;3.25;1.65;;;1.30;99.90;;;;;;5027979;28;20473;-85
2023/02/26 09:26:14;;;;;;;1.90;1.55;;;1.40;99.90;;;;;;5033592;28;20080;-85
2023/02/26 09:28:41;;;;;;;3.80;1.73;;;1.30;99.90;;;;;;5034486;28;20498;-85
2023/02/26 09:31:08;;;;;;;1.15;1.05;;;1.30;99.90;;;;;;5028100;28;20056;-84
2023/02/26 09:33:35;;;;;;;2.88;1.42;;;1.20;99.90;;;;;;5022907;28;20071;-86
2023/02/26 09:36:02;;;;;;;3.80;1.85;;;1.20;99.90;;;;;;5038723;28;20049;-84
2023/02/26 09:38:29;;;;;;;3.10;1.38;;;1.20;99.90;;;;;;5025529;28;20045;-84
2023/02/26 09:41:01;;;;;;;1.85;1.42;;;1.20;99.90;;;;;;5029241;28;20086;-82
2023/02/26 09:43:45;;;;;;;1.85;1.42;;;1.20;99.90;;;;;;5029434;28;20054;-84
2023/02/26 09:46:30;;;;;;;3.13;1.42;;;1.30;99.90;;;;;;5019648;28;20096;-85
2023/02/26 09:49:14;;;;;;;4.30;1.45;;;1.40;99.90;;;;;;5014920;28;20130;-85
2023/02/26 09:51:43;;;;;;;5.60;1.10;;;1.40;99.90;;;;;;5022187;28;20057;-82
2023/02/26 09:54:23;;;;;;;1.77;1.15;;;1.40;99.90;;;;;;5024656;28;20125;-82
2023/02/26 09:56:52;;;;;;;3.17;1.05;;;1.40;99.90;;;;;;5018618;28;20136;-84
2023/02/26 09:59:19;;;;;;;3.78;1.02;;;1.40;99.90;;;;;;5027036;28;20057;-84
2023/02/26 10:02:13;;;;;;;1.23;1.05;;;1.40;99.90;;;;;;5018731;28;20053;-84
2023/02/26 10:04:52;;;;;;;2.33;0.90;;;1.50;99.90;;;;;;5016017;28;20061;-84
2023/02/26 10:07:44;;;;;;;3.47;0.93;;;1.60;99.90;;;;;;5022271;28;20645;-84
2023/02/26 10:10:19;;;;;;;2.75;1.20;;;1.60;99.90;;;;;;5020391;28;20403;-84
2023/02/26 10:12:50;;;;;;;1.98;1.10;;;1.60;99.90;;;;;;5026659;28;20432;-84
2023/02/26 10:15:30;;;;;;;1.48;1.10;;;1.60;99.90;;;;;;5022421;28;20149;-85
2023/02/26 10:18:12;;;;;;;1.08;0.90;;;1.60;99.90;;;;;;5045392;28;20079;-84
2023/02/26 10:20:57;;;;;;;1.98;1.30;;;1.60;99.90;;;;;;5025600;28;20057;-84
2023/02/26 10:23:37;;;;;;;4.63;1.23;;;1.70;99.90;;;;;;5043228;28;20050;-85
2023/02/26 10:26:12;;;;;;;0.70;0.70;;;1.80;99.90;;;;;;5016188;28;20104;-84
2023/02/26 10:29:04;;;;;;;2.17;0.90;;;1.90;99.90;;;;;;5021063;28;20053;-84
2023/02/26 10:31:55;;;;;;;0.88;0.88;;;2.00;99.90;;;;;;5020906;28;20085;-85
2023/02/26 10:34:50;;;;;;;0.73;0.70;;;2.00;99.90;;;;;;5039648;28;20053;-84
2023/02/26 10:37:44;;;;;;;0.80;0.80;;;2.10;99.90;;;;;;5020462;28;20110;-84
2023/02/26 10:40:38;;;;;;;1.60;0.80;;;2.20;99.90;;;;;;5028066;28;20449;-85
2023/02/26 10:43:25;;;;;;;3.40;0.90;;;2.30;99.90;;;;;;5022438;28;20056;-85
2023/02/26 10:46:17;;;;;;;1.35;0.73;;;2.30;99.90;;;;;;5019893;28;20042;-84
2023/02/26 10:49:23;;;;;;;1.00;0.70;;;2.40;99.90;;;;;;5025511;28;20501;-84
2023/02/26 10:51:51;;;;;;;1.83;0.85;;;2.40;99.90;;;;;;5024499;28;20045;-84
2023/02/26 10:54:34;;;;;;;1.13;0.77;;;2.30;99.90;;;;;;5019711;28;20081;-83
2023/02/26 10:57:00;;;;;;;1.77;0.70;;;2.40;99.90;;;;;;5012129;28;20505;-84
2023/02/26 10:59:27;;;;;;;1.15;0.68;;;2.40;99.90;;;;;;5022332;28;20499;-84
2023/02/26 11:01:55;;;;;;;2.33;0.80;;;2.50;99.90;;;;;;5038097;28;20045;-84
2023/02/26 11:04:25;;;;;;;1.98;1.00;;;2.50;99.90;;;;;;5029985;28;20194;-83
2023/02/26 11:06:56;;;;;;;2.05;0.90;;;2.50;99.90;;;;;;5039984;28;20432;-83
2023/02/26 11:09:32;;;;;;;1.50;1.02;;;2.60;99.90;;;;;;5019200;28;20509;-82
2023/02/26 11:12:14;;;;;;;1.48;1.23;;;2.60;99.90;;;;;;5021947;28;20073;-84
2023/02/26 11:14:42;;;;;;;2.05;0.93;;;2.70;99.90;;;;;;5007160;28;20052;-83
2023/02/26 11:17:22;;;;;;;2.63;1.17;;;2.80;99.90;;;;;;5022026;28;20041;-84
2023/02/26 11:19:58;;;;;;;1.33;0.75;;;2.60;99.90;;;;;;5014182;28;20045;-84
2023/02/26 11:22:28;;;;;;;4.05;1.20;;;2.50;99.90;;;;;;5020836;28;20063;-85
2023/02/26 11:24:55;;;;;;;3.13;0.70;;;2.20;99.90;;;;;;5009815;28;20038;-84
2023/02/26 11:27:30;;;;;;;1.40;1.00;;;1.90;99.90;;;;;;5022505;28;20050;-84
2023/02/26 11:30:05;;;;;;;1.30;0.70;;;1.80;99.90;;;;;;5018601;28;20046;-85
2023/02/26 11:32:34;;;;;;;3.03;0.77;;;1.90;99.90;;;;;;5014929;28;20481;-84
2023/02/26 11:35:02;;;;;;;4.15;0.90;;;2.00;99.90;;;;;;5024492;28;20108;-83
2023/02/26 11:37:33;;;;;;;1.33;0.80;;;2.10;99.90;;;;;;5020572;28;20085;-86
2023/02/26 11:40:25;;;;;;;2.15;0.80;;;2.00;99.90;;;;;;5034043;28;20050;-84
2023/02/26 11:42:58;;;;;;;0.85;0.80;;;2.10;99.90;;;;;;5021773;28;20573;-83
2023/02/26 11:45:25;;;;;;;1.42;0.90;;;2.20;99.90;;;;;;5016989;28;20137;-84
2023/02/26 11:48:02;;;;;;;1.25;1.00;;;2.40;99.90;;;;;;5014704;28;20055;-84
2023/02/26 11:50:30;;;;;;;0.75;0.70;;;2.50;99.90;;;;;;5018143;28;20109;-85
2023/02/26 11:53:07;;;;;;;0.88;0.85;;;2.70;99.90;;;;;;5019362;28;20046;-84
2023/02/26 11:55:38;;;;;;;1.02;0.95;;;2.80;99.90;;;;;;5025893;28;20479;-85
2023/02/26 11:58:18;;;;;;;1.38;0.82;;;3.00;99.90;;;;;;5014105;28;20116;-84
2023/02/26 12:00:46;;;;;;;0.68;0.60;;;3.00;99.90;;;;;;5023207;28;20083;-84
2023/02/26 12:03:22;;;;;;;1.23;0.90;;;3.00;99.90;;;;;;5026671;28;20132;-85
2023/02/26 12:05:52;;;;;;;1.17;0.60;;;3.00;99.90;;;;;;5037073;28;20490;-85
2023/02/26 12:08:28;;;;;;;0.85;0.80;;;3.00;99.90;;;;;;5032562;28;20058;-84
2023/02/26 12:11:17;;;;;;;6.65;1.00;;;3.10;99.90;;;;;;5017948;28;20536;-84
2023/02/26 12:14:07;;;;;;;0.80;0.80;;;3.10;99.90;;;;;;5014091;28;20056;-83
2023/02/26 12:16:41;;;;;;;;;;;3.20;99.90;;;;;;5019206;28;20164;-85
2023/02/26 12:19:17;;;;;;;1.52;0.80;;;3.10;99.90;;;;;;5015997;28;20377;-85
2023/02/26 12:21:53;;;;;;;1.58;1.00;;;3.10;99.90;;;;;;5011620;28;20042;-84
2023/02/26 12:25:03;;;;;;;1.30;0.88;;;3.00;99.90;;;;;;5022059;28;20154;-85
2023/02/26 12:27:55;;;;;;;2.08;1.48;;;3.00;99.90;;;;;;5023397;28;20730;-85
2023/02/26 12:30:44;;;;;;;3.25;1.10;;;2.90;99.90;;;;;;5008464;28;20074;-87
2023/02/26 12:33:30;;;;;;;1.85;0.82;;;3.00;99.90;;;;;;5019199;28;20050;-85
2023/02/26 12:36:09;;;;;;;0.70;0.70;;;3.20;99.90;;;;;;5022775;28;20053;-84
2023/02/26 12:39:08;;;;;;;1.00;0.70;;;3.30;99.90;;;;;;5033662;28;20056;-84
2023/02/26 12:42:13;;;;;;;1.38;0.90;;;3.30;99.90;;;;;;5026877;28;20050;-84
2023/02/26 12:44:46;;;;;;;5.95;0.80;;;3.40;99.90;;;;;;4993390;28;20573;-85
2023/02/26 12:47:41;;;;;;;3.00;0.82;;;3.40;99.90;;;;;;5016222;28;20057;-84
2023/02/26 12:50:25;;;;;;;0.93;0.80;;;3.40;99.90;;;;;;5021130;28;20481;-84
2023/02/26 12:53:13;;;;;;;3.28;0.80;;;3.30;99.90;;;;;;5038648;28;20107;-85
2023/02/26 12:56:02;;;;;;;1.10;0.90;;;3.30;99.90;;;;;;5021565;28;22016;-85
2023/02/26 12:58:35;;;;;;;0.77;0.77;;;3.30;99.90;;;;;;5026870;28;20503;-85
2023/02/26 13:01:44;;;;;;;0.65;0.60;;;3.20;99.90;;;;;;5037676;28;20336;-84
2023/02/26 13:04:41;;;;;;;1.77;0.80;;;3.20;99.90;;;;;;5027925;28;20046;-84
2023/02/26 13:07:23;;;;;;;1.35;0.90;;;3.40;99.90;;;;;;5022846;28;20109;-85
2023/02/26 13:10:01;;;;;;;2.28;0.80;;;3.50;99.90;;;;;;5039922;28;20060;-85
2023/02/26 13:12:34;;;;;;;1.25;0.93;;;3.60;99.90;;;;;;5019399;28;20050;-85
2023/02/26 13:15:22;;;;;;;1.67;0.70;;;3.50;99.90;;;;;;5042565;28;20072;-85
2023/02/26 13:18:15;;;;;;;1.23;0.80;;;3.50;99.90;;;;;;5026697;28;20105;-86
2023/02/26 13:21:06;;;;;;;1.95;0.80;;;3.30;99.90;;;;;;5025939;28;20042;-85
2023/02/26 13:23:50;;;;;;;0.98;0.88;;;3.30;99.90;;;;;;5021236;28;20045;-84
2023/02/26 13:26:17;;;;;;;1.05;0.90;;;3.20;99.90;;;;;;5026714;28;20052;-85
2023/02/26 13:28:56;;;;;;;1.13;0.80;;;3.30;99.90;;;;;;5032434;28;20045;-84
2023/02/26 13:31:27;;;;;;;1.95;1.10;;;3.30;99.90;;;;;;5012325;28;20144;-84